createdAt,value
2023-02-03T00:00:17.001Z,100.00
2023-02-03T00:02:23.209Z,100.00
2023-02-03T00:04:27.970Z,100.00
2023-02-03T00:06:35.527Z,100.00
2023-02-03T00:08:49.293Z,100.00
2023-02-03T00:10:59.397Z,100.00
2023-02-03T00:13:04.554Z,100.00
2023-02-03T00:15:17.170Z,100.00
2023-02-03T00:17:21.509Z,100.00
2023-02-03T00:19:26.143Z,100.00
2023-02-03T00:21:30.864Z,100.00
2023-02-03T00:23:38.376Z,100.00
2023-02-03T00:25:45.185Z,100.00
2023-02-03T00:27:51.496Z,100.00
2023-02-03T00:29:57.096Z,100.00
2023-02-03T00:32:02.668Z,100.00
2023-02-03T00:34:13.258Z,100.00
2023-02-03T00:36:18.748Z,100.00
2023-02-03T00:38:25.124Z,100.00
2023-02-03T00:40:31.226Z,100.00
2023-02-03T00:42:38.734Z,100.00
2023-02-03T00:44:43.931Z,100.00
2023-02-03T00:46:50.306Z,100.00
2023-02-03T00:48:55.088Z,100.00
2023-02-03T00:51:01.219Z,100.00
2023-02-03T00:53:06.191Z,100.00
2023-02-03T00:55:11.906Z,100.00
2023-02-03T00:57:16.064Z,100.00
2023-02-03T00:59:22.157Z,100.00
2023-02-03T01:01:27.704Z,100.00
2023-02-03T01:03:32.985Z,100.00
2023-02-03T01:05:37.021Z,100.00
2023-02-03T01:07:41.511Z,100.00
2023-02-03T01:09:45.666Z,100.00
2023-02-03T01:11:49.823Z,100.00
2023-02-03T01:13:55.625Z,100.00
2023-02-03T01:16:01.635Z,100.00
2023-02-03T01:18:10.078Z,100.00
2023-02-03T01:20:16.763Z,100.00
2023-02-03T01:22:21.423Z,100.00
2023-02-03T01:24:26.796Z,100.00
2023-02-03T01:26:33.224Z,100.00
2023-02-03T01:28:38.446Z,100.00
2023-02-03T01:30:42.814Z,100.00
2023-02-03T01:32:50.535Z,100.00
2023-02-03T01:34:54.975Z,100.00
2023-02-03T01:37:00.841Z,100.00
2023-02-03T01:39:10.274Z,100.00
2023-02-03T01:41:16.594Z,100.00
2023-02-03T01:43:33.682Z,100.00
2023-02-03T01:45:37.995Z,100.00
2023-02-03T01:47:48.962Z,100.00
2023-02-03T01:50:02.145Z,100.00
2023-02-03T01:52:07.500Z,100.00
2023-02-03T01:54:16.986Z,100.00
2023-02-03T01:56:23.066Z,100.00
2023-02-03T01:58:33.565Z,100.00
2023-02-03T02:00:37.675Z,100.00
2023-02-03T02:02:42.127Z,100.00
2023-02-03T02:04:57.503Z,100.00
2023-02-03T02:07:01.697Z,100.00
2023-02-03T02:09:07.284Z,100.00
2023-02-03T02:11:16.210Z,100.00
2023-02-03T02:13:22.949Z,100.00
2023-02-03T02:15:33.365Z,100.00
2023-02-03T02:17:56.461Z,100.00
2023-02-03T02:20:39.538Z,100.00
2023-02-03T02:23:03.028Z,100.00
2023-02-03T02:25:50.157Z,100.00
2023-02-03T02:28:26.525Z,100.00
2023-02-03T02:30:45.474Z,100.00
2023-02-03T02:33:00.856Z,100.00
2023-02-03T02:35:15.981Z,100.00
2023-02-03T02:37:33.553Z,100.00
2023-02-03T02:39:48.663Z,100.00
2023-02-03T02:42:02.475Z,100.00
2023-02-03T02:44:13.734Z,100.00
2023-02-03T02:46:21.421Z,100.00
2023-02-03T02:48:36.330Z,100.00
2023-02-03T02:50:46.395Z,100.00
2023-02-03T02:52:52.958Z,100.00
2023-02-03T02:55:06.530Z,100.00
2023-02-03T02:57:18.596Z,100.00
2023-02-03T02:59:26.527Z,100.00
2023-02-03T03:01:32.755Z,100.00
2023-02-03T03:03:47.342Z,100.00
2023-02-03T03:05:58.481Z,100.00
2023-02-03T03:08:08.359Z,100.00
2023-02-03T03:10:19.799Z,100.00
2023-02-03T03:12:30.722Z,100.00
2023-02-03T03:14:38.206Z,100.00
2023-02-03T03:16:48.385Z,100.00
2023-02-03T03:18:57.133Z,100.00
2023-02-03T03:21:06.653Z,100.00
2023-02-03T03:23:17.846Z,100.00
2023-02-03T03:25:23.006Z,100.00
2023-02-03T03:27:32.096Z,100.00
2023-02-03T03:29:44.297Z,100.00
2023-02-03T03:31:49.215Z,100.00
2023-02-03T03:33:54.535Z,100.00
2023-02-03T03:36:05.034Z,100.00
2023-02-03T03:38:17.232Z,100.00
2023-02-03T03:40:25.637Z,100.00
2023-02-03T03:42:36.382Z,100.00
2023-02-03T03:44:47.447Z,100.00
2023-02-03T03:46:57.558Z,100.00
2023-02-03T03:49:06.640Z,100.00
2023-02-03T03:51:15.668Z,100.00
2023-02-03T03:53:21.521Z,100.00
2023-02-03T03:55:26.642Z,100.00
2023-02-03T03:57:36.335Z,100.00
2023-02-03T03:59:46.558Z,100.00
2023-02-03T04:01:52.843Z,100.00
2023-02-03T04:04:02.047Z,100.00
2023-02-03T04:06:08.325Z,100.00
2023-02-03T04:08:12.196Z,100.00
2023-02-03T04:10:23.478Z,100.00
2023-02-03T04:12:27.681Z,100.00
2023-02-03T04:14:32.606Z,100.00
2023-02-03T04:16:36.710Z,100.00
2023-02-03T04:18:40.732Z,100.00
2023-02-03T04:20:45.163Z,100.00
2023-02-03T04:22:50.957Z,100.00
2023-02-03T04:24:55.169Z,100.00
2023-02-03T04:26:59.588Z,100.00
2023-02-03T04:29:04.326Z,100.00
2023-02-03T04:31:08.244Z,100.00
2023-02-03T04:33:12.532Z,100.00
2023-02-03T04:35:17.331Z,100.00
2023-02-03T04:37:23.525Z,100.00
2023-02-03T04:39:28.850Z,100.00
2023-02-03T04:41:32.788Z,100.00
2023-02-03T04:43:36.994Z,100.00
2023-02-03T04:45:41.546Z,100.00
2023-02-03T04:47:45.822Z,100.00
2023-02-03T04:49:49.931Z,100.00
2023-02-03T04:51:54.146Z,100.00
2023-02-03T04:53:58.186Z,100.00
2023-02-03T04:56:04.170Z,100.00
2023-02-03T04:58:08.270Z,100.00
2023-02-03T05:00:13.898Z,100.00
2023-02-03T05:02:18.170Z,100.00
2023-02-03T05:04:22.272Z,100.00
2023-02-03T05:06:27.043Z,100.00
2023-02-03T05:08:31.531Z,100.00
2023-02-03T05:10:35.755Z,100.00
2023-02-03T05:12:41.607Z,100.00
2023-02-03T05:14:45.531Z,100.00
2023-02-03T05:16:49.621Z,100.00
2023-02-03T05:18:53.751Z,100.00
2023-02-03T05:20:57.961Z,100.00
2023-02-03T05:23:02.570Z,100.00
2023-02-03T05:25:07.646Z,100.00
2023-02-03T05:27:11.809Z,100.00
2023-02-03T05:29:17.414Z,100.00
2023-02-03T05:31:21.386Z,100.00
2023-02-03T05:33:25.696Z,100.00
2023-02-03T05:35:29.945Z,100.00
2023-02-03T05:37:33.872Z,100.00
2023-02-03T05:39:37.889Z,100.00
2023-02-03T05:41:53.665Z,100.00
2023-02-03T05:43:57.956Z,100.00
2023-02-03T05:46:04.332Z,100.00
2023-02-03T05:48:08.920Z,100.00
2023-02-03T05:50:13.097Z,100.00
2023-02-03T05:52:18.429Z,100.00
2023-02-03T05:54:22.946Z,100.00
2023-02-03T05:56:27.841Z,100.00
2023-02-03T05:58:31.346Z,100.00
2023-02-03T06:00:35.734Z,100.00
2023-02-03T06:02:41.199Z,100.00
2023-02-03T06:04:45.733Z,100.00
2023-02-03T06:06:50.006Z,100.00
2023-02-03T06:08:57.532Z,100.00
2023-02-03T06:11:01.949Z,100.00
2023-02-03T06:13:13.915Z,100.00
2023-02-03T06:15:18.564Z,100.00
2023-02-03T06:17:22.496Z,100.00
2023-02-03T06:19:46.382Z,100.00
2023-02-03T06:21:50.617Z,100.00
2023-02-03T06:23:55.033Z,100.00
2023-02-03T06:26:00.549Z,100.00
2023-02-03T06:28:04.822Z,100.00
2023-02-03T06:30:10.057Z,100.00
2023-02-03T06:32:14.316Z,100.00
2023-02-03T06:34:18.590Z,100.00
2023-02-03T06:36:24.214Z,100.00
2023-02-03T06:38:28.491Z,100.00
2023-02-03T06:40:33.316Z,100.00
2023-02-03T06:42:37.798Z,100.00
2023-02-03T06:44:41.934Z,100.00
2023-02-03T06:46:45.949Z,100.00
2023-02-03T06:48:49.957Z,100.00
2023-02-03T06:50:54.063Z,100.00
2023-02-03T06:52:59.473Z,100.00
2023-02-03T06:55:03.711Z,100.00
2023-02-03T06:57:07.615Z,100.00
2023-02-03T06:59:12.105Z,100.00
2023-02-03T07:01:16.526Z,100.00
2023-02-03T07:03:20.446Z,100.00
2023-02-03T07:05:25.565Z,100.00
2023-02-03T07:07:30.475Z,100.00
2023-02-03T07:09:35.553Z,100.00
2023-02-03T07:11:39.608Z,100.00
2023-02-03T07:13:44.175Z,100.00
2023-02-03T07:15:47.946Z,100.00
2023-02-03T07:17:55.107Z,100.00
2023-02-03T07:19:59.389Z,100.00
2023-02-03T07:22:03.996Z,100.00
2023-02-03T07:24:08.293Z,100.00
2023-02-03T07:26:14.274Z,100.00
2023-02-03T07:28:18.763Z,100.00
2023-02-03T07:30:23.673Z,100.00
2023-02-03T07:32:27.725Z,100.00
2023-02-03T07:34:31.777Z,100.00
2023-02-03T07:36:35.444Z,100.00
2023-02-03T07:38:40.351Z,100.00
2023-02-03T07:40:44.210Z,100.00
2023-02-03T07:42:51.172Z,100.00
2023-02-03T07:44:55.473Z,100.00
2023-02-03T07:46:59.793Z,100.00
2023-02-03T07:49:06.396Z,100.00
2023-02-03T07:51:10.694Z,100.00
2023-02-03T07:53:14.571Z,100.00
2023-02-03T07:55:18.385Z,100.00
2023-02-03T07:57:22.568Z,100.00
2023-02-03T07:59:28.111Z,100.00
2023-02-03T08:01:32.496Z,100.00
2023-02-03T08:03:36.276Z,100.00
2023-02-03T08:05:39.717Z,100.00
2023-02-03T08:07:44.375Z,100.00
2023-02-03T08:09:53.129Z,100.00
2023-02-03T08:11:57.090Z,100.00
2023-02-03T08:14:01.730Z,100.00
2023-02-03T08:16:09.050Z,100.00
2023-02-03T08:18:13.051Z,100.00
2023-02-03T08:20:17.930Z,100.00
2023-02-03T08:22:22.044Z,100.00
2023-02-03T08:24:25.701Z,100.00
2023-02-03T08:26:29.846Z,100.00
2023-02-03T08:28:34.129Z,100.00
2023-02-03T08:30:38.159Z,100.00
2023-02-03T08:32:43.834Z,100.00
2023-02-03T08:34:54.108Z,100.00
2023-02-03T08:36:58.488Z,100.00
2023-02-03T08:39:03.379Z,100.00
2023-02-03T08:41:11.732Z,100.00
2023-02-03T08:43:16.637Z,100.00
2023-02-03T08:45:21.119Z,100.00
2023-02-03T08:47:25.267Z,100.00
2023-02-03T08:49:32.381Z,100.00
2023-02-03T08:51:36.255Z,100.00
2023-02-03T08:53:40.583Z,100.00
2023-02-03T08:55:44.576Z,100.00
2023-02-03T08:57:48.628Z,100.00
2023-02-03T08:59:53.032Z,100.00
2023-02-03T09:01:57.350Z,100.00
2023-02-03T09:04:02.456Z,100.00
2023-02-03T09:06:12.113Z,100.00
2023-02-03T09:08:16.749Z,100.00
2023-02-03T09:10:21.436Z,100.00
2023-02-03T09:12:25.483Z,100.00
2023-02-03T09:14:29.810Z,100.00
2023-02-03T09:16:33.452Z,100.00
2023-02-03T09:18:37.269Z,100.00
2023-02-03T09:20:40.798Z,100.00
2023-02-03T09:22:47.366Z,100.00
2023-02-03T09:24:51.886Z,100.00
2023-02-03T09:26:56.095Z,100.00
2023-02-03T09:29:00.060Z,100.00
2023-02-03T09:31:05.151Z,100.00
2023-02-03T09:33:10.297Z,100.00
2023-02-03T09:35:14.338Z,100.00
2023-02-03T09:37:18.197Z,100.00
2023-02-03T09:39:23.281Z,100.00
2023-02-03T09:41:44.416Z,100.00
2023-02-03T09:43:54.960Z,100.00
2023-02-03T09:46:03.238Z,100.00
2023-02-03T09:48:14.233Z,100.00
2023-02-03T09:50:22.543Z,100.00
2023-02-03T09:52:30.027Z,100.00
2023-02-03T09:54:44.911Z,100.00
2023-02-03T09:56:52.812Z,100.00
2023-02-03T09:58:56.713Z,99.44
2023-02-03T10:01:02.750Z,98.42
2023-02-03T10:03:13.650Z,97.94
2023-02-03T10:05:27.324Z,98.46
2023-02-03T10:07:41.539Z,98.00
2023-02-03T10:09:57.352Z,98.33
2023-02-03T10:12:27.078Z,96.98
2023-02-03T10:14:39.561Z,96.32
2023-02-03T10:17:03.198Z,95.88
2023-02-03T10:19:12.973Z,95.20
2023-02-03T10:21:21.096Z,94.66
2023-02-03T10:23:31.364Z,94.37
2023-02-03T10:25:42.472Z,93.58
2023-02-03T10:27:46.994Z,93.46
2023-02-03T10:29:57.120Z,93.27
2023-02-03T10:32:01.050Z,93.35
2023-02-03T10:34:11.903Z,92.37
2023-02-03T10:36:22.018Z,92.17
2023-02-03T10:38:43.055Z,91.84
2023-02-03T10:40:49.946Z,91.34
2023-02-03T10:43:12.398Z,91.07
2023-02-03T10:45:16.293Z,91.40
2023-02-03T10:47:28.956Z,91.44
2023-02-03T10:49:33.102Z,90.59
2023-02-03T10:51:41.530Z,90.91
2023-02-03T10:53:46.923Z,90.20
2023-02-03T10:56:01.923Z,90.51
2023-02-03T10:58:16.703Z,89.86
2023-02-03T11:00:29.870Z,90.45
2023-02-03T11:02:34.349Z,90.20
2023-02-03T11:04:38.594Z,89.94
2023-02-03T11:06:57.051Z,90.04
2023-02-03T11:09:01.641Z,90.17
2023-02-03T11:11:09.963Z,90.02
2023-02-03T11:13:22.584Z,89.54
2023-02-03T11:15:27.653Z,89.32
2023-02-03T11:17:33.706Z,88.95
2023-02-03T11:19:40.615Z,88.98
2023-02-03T11:21:48.438Z,88.95
2023-02-03T11:23:59.837Z,88.12
2023-02-03T11:26:15.152Z,87.76
2023-02-03T11:28:22.757Z,88.04
2023-02-03T11:30:30.568Z,87.87
2023-02-03T11:32:37.847Z,87.76
2023-02-03T11:34:43.271Z,88.21
2023-02-03T11:36:47.320Z,87.54
2023-02-03T11:38:51.320Z,87.57
2023-02-03T11:41:01.483Z,86.52
2023-02-03T11:43:17.628Z,86.82
2023-02-03T11:45:28.710Z,86.45
2023-02-03T11:47:32.901Z,86.54
2023-02-03T11:49:59.378Z,86.32
2023-02-03T11:52:17.584Z,86.96
2023-02-03T11:54:33.916Z,87.16
2023-02-03T11:56:57.362Z,87.85
2023-02-03T11:59:25.832Z,87.81
2023-02-03T12:01:52.113Z,88.25
2023-02-03T12:04:32.971Z,88.90
2023-02-03T12:07:00.273Z,90.10
2023-02-03T12:09:14.244Z,91.10
2023-02-03T12:11:31.367Z,91.28
2023-02-03T12:14:03.814Z,91.04
2023-02-03T12:16:23.193Z,90.84
2023-02-03T12:18:42.370Z,90.55
2023-02-03T12:21:01.345Z,89.62
2023-02-03T12:23:15.369Z,88.62
2023-02-03T12:25:30.541Z,88.65
2023-02-03T12:27:43.483Z,88.38
2023-02-03T12:29:53.167Z,88.30
2023-02-03T12:32:07.563Z,87.95
2023-02-03T12:34:22.591Z,87.34
2023-02-03T12:36:30.717Z,87.46
2023-02-03T12:38:41.051Z,86.70
2023-02-03T12:40:49.445Z,86.54
2023-02-03T12:42:58.266Z,86.36
2023-02-03T12:45:06.049Z,86.14
2023-02-03T12:47:21.254Z,85.33
2023-02-03T12:49:36.915Z,85.38
2023-02-03T12:51:45.508Z,84.57
2023-02-03T12:53:55.103Z,84.58
2023-02-03T12:56:05.366Z,84.96
2023-02-03T12:58:13.627Z,85.06
2023-02-03T13:00:28.787Z,85.50
2023-02-03T13:02:42.443Z,85.91
2023-02-03T13:04:56.874Z,86.12
2023-02-03T13:07:08.409Z,86.59
2023-02-03T13:09:23.238Z,86.46
2023-02-03T13:11:34.059Z,86.16
2023-02-03T13:13:43.587Z,86.20
2023-02-03T13:15:50.811Z,86.69
2023-02-03T13:18:00.255Z,86.63
2023-02-03T13:20:12.305Z,87.14
2023-02-03T13:22:18.047Z,87.11
2023-02-03T13:24:25.173Z,86.70
2023-02-03T13:27:01.096Z,86.96
2023-02-03T13:29:19.709Z,87.61
2023-02-03T13:31:40.653Z,87.29
2023-02-03T13:34:10.960Z,87.47
2023-02-03T13:36:47.317Z,87.09
2023-02-03T13:39:09.702Z,87.00
2023-02-03T13:41:22.843Z,87.51
2023-02-03T13:43:38.753Z,87.28
2023-02-03T13:45:46.850Z,87.33
2023-02-03T13:47:54.484Z,86.91
2023-02-03T13:50:03.446Z,87.14
2023-02-03T13:52:07.161Z,87.04
2023-02-03T13:54:19.579Z,87.21
2023-02-03T13:56:29.123Z,87.79
2023-02-03T13:58:37.047Z,88.26
2023-02-03T14:01:02.482Z,88.69
2023-02-03T14:03:16.742Z,89.22
2023-02-03T14:05:50.057Z,89.12
2023-02-03T14:07:54.189Z,89.75
2023-02-03T14:10:23.630Z,89.35
2023-02-03T14:12:37.709Z,88.94
2023-02-03T14:14:46.537Z,89.32
2023-02-03T14:16:54.528Z,88.66
2023-02-03T14:18:58.659Z,88.28
2023-02-03T14:21:19.203Z,88.49
2023-02-03T14:23:28.662Z,87.91
2023-02-03T14:25:35.475Z,88.15
2023-02-03T14:27:39.587Z,87.93
2023-02-03T14:29:43.495Z,88.19
2023-02-03T14:31:59.598Z,88.05
2023-02-03T14:34:13.417Z,87.48
2023-02-03T14:36:35.246Z,86.82
2023-02-03T14:38:38.867Z,86.90
2023-02-03T14:40:48.883Z,86.80
2023-02-03T14:43:13.357Z,86.08
2023-02-03T14:45:43.659Z,85.32
2023-02-03T14:47:57.503Z,85.60
2023-02-03T14:50:16.459Z,85.23
2023-02-03T14:52:38.976Z,85.45
2023-02-03T14:55:01.641Z,85.25
2023-02-03T14:57:21.417Z,85.46
2023-02-03T14:59:29.567Z,85.53
2023-02-03T15:02:08.464Z,85.71
2023-02-03T15:04:25.420Z,85.53
2023-02-03T15:06:41.191Z,85.61
2023-02-03T15:08:48.263Z,85.71
2023-02-03T15:10:52.040Z,85.48
2023-02-03T15:12:58.406Z,85.31
2023-02-03T15:15:14.708Z,85.38
2023-02-03T15:17:25.185Z,85.20
2023-02-03T15:19:33.431Z,85.10
2023-02-03T15:21:44.297Z,85.13
2023-02-03T15:23:52.155Z,85.34
2023-02-03T15:25:57.870Z,85.55
2023-02-03T15:28:17.493Z,85.83
2023-02-03T15:30:27.895Z,85.73
2023-02-03T15:32:36.063Z,85.46
2023-02-03T15:34:44.513Z,85.00
2023-02-03T15:36:52.534Z,85.03
2023-02-03T15:39:05.053Z,84.63
2023-02-03T15:41:12.919Z,83.85
2023-02-03T15:43:21.962Z,83.19
2023-02-03T15:45:31.989Z,83.10
2023-02-03T15:47:40.396Z,83.15
2023-02-03T15:49:45.434Z,83.33
2023-02-03T15:51:49.565Z,83.01
2023-02-03T15:54:00.128Z,83.35
2023-02-03T15:56:06.486Z,83.05
2023-02-03T15:58:19.218Z,82.55
2023-02-03T16:00:33.349Z,82.87
2023-02-03T16:02:43.485Z,82.08
2023-02-03T16:04:47.588Z,82.34
2023-02-03T16:06:53.352Z,82.64
2023-02-03T16:08:59.931Z,82.24
2023-02-03T16:11:03.616Z,82.09
2023-02-03T16:13:22.313Z,82.25
2023-02-03T16:15:27.425Z,82.71
2023-02-03T16:17:33.417Z,82.64
2023-02-03T16:19:40.417Z,83.06
2023-02-03T16:21:54.587Z,82.37
2023-02-03T16:24:00.640Z,82.81
2023-02-03T16:26:06.602Z,83.07
2023-02-03T16:28:35.258Z,83.12
2023-02-03T16:30:56.672Z,83.01
2023-02-03T16:33:22.337Z,82.85
2023-02-03T16:35:43.400Z,83.17
2023-02-03T16:38:04.121Z,83.42
2023-02-03T16:40:27.627Z,82.79
2023-02-03T16:42:57.579Z,83.03
2023-02-03T16:45:18.620Z,83.39
2023-02-03T16:47:45.143Z,83.17
2023-02-03T16:50:06.777Z,83.50
2023-02-03T16:52:10.604Z,83.49
2023-02-03T16:54:15.483Z,83.89
2023-02-03T16:56:20.040Z,84.01
2023-02-03T16:58:24.464Z,84.54
2023-02-03T17:00:28.416Z,84.20
2023-02-03T17:02:32.629Z,84.48
2023-02-03T17:04:36.900Z,84.64
2023-02-03T17:06:43.579Z,85.05
2023-02-03T17:08:47.354Z,84.96
2023-02-03T17:10:51.593Z,84.93
2023-02-03T17:12:56.831Z,85.46
2023-02-03T17:15:00.626Z,85.27
2023-02-03T17:17:04.556Z,85.60
2023-02-03T17:19:11.880Z,85.69
2023-02-03T17:21:17.651Z,86.26
2023-02-03T17:23:24.313Z,86.57
2023-02-03T17:25:28.500Z,86.90
2023-02-03T17:27:32.376Z,87.12
2023-02-03T17:29:37.970Z,87.42
2023-02-03T17:31:41.790Z,87.71
2023-02-03T17:33:46.775Z,88.15
2023-02-03T17:36:03.285Z,88.15
2023-02-03T17:38:07.003Z,88.65
2023-02-03T17:54:20.968Z,89.34
2023-02-03T17:56:26.996Z,89.50
2023-02-03T17:58:30.892Z,89.78
2023-02-03T18:00:36.148Z,89.64
2023-02-03T18:02:40.556Z,90.30
2023-02-03T18:04:45.364Z,90.34
2023-02-03T18:06:49.467Z,90.53
2023-02-03T18:08:53.519Z,91.12
2023-02-03T18:10:57.329Z,90.89
2023-02-03T18:13:02.140Z,90.96
2023-02-03T18:15:06.478Z,91.74
2023-02-03T18:17:11.851Z,91.94
2023-02-03T18:19:19.965Z,91.90
2023-02-03T18:21:27.914Z,91.72
2023-02-03T18:23:32.279Z,92.54
2023-02-03T18:25:37.226Z,92.35
2023-02-03T18:27:40.836Z,92.28
2023-02-03T18:29:46.358Z,93.01
2023-02-03T18:31:50.515Z,92.86
2023-02-03T18:33:56.411Z,92.83
2023-02-03T18:36:01.848Z,93.24
2023-02-03T18:38:05.443Z,93.53
2023-02-03T18:40:09.747Z,93.84
2023-02-03T18:42:13.445Z,93.79
2023-02-03T18:44:17.377Z,93.54
2023-02-03T18:46:24.298Z,93.93
2023-02-03T18:48:28.049Z,94.55
2023-02-03T18:50:33.433Z,94.47
2023-02-03T18:52:38.257Z,94.71
2023-02-03T18:54:42.269Z,94.91
2023-02-03T18:56:48.374Z,94.22
2023-02-03T18:58:52.929Z,94.89
2023-02-03T19:00:59.321Z,94.63
2023-02-03T19:03:03.423Z,94.85
2023-02-03T19:05:08.817Z,95.19
2023-02-03T19:07:14.066Z,94.82
2023-02-03T19:09:19.436Z,94.78
2023-02-03T19:11:23.877Z,94.95
2023-02-03T19:13:27.666Z,95.51
2023-02-03T19:15:31.454Z,95.33
2023-02-03T19:17:35.575Z,95.37
2023-02-03T19:19:39.292Z,95.63
2023-02-03T19:21:43.152Z,95.75
2023-02-03T19:23:48.382Z,95.63
2023-02-03T19:25:52.869Z,95.85
2023-02-03T19:27:56.532Z,95.64
2023-02-03T19:30:00.392Z,95.66
2023-02-03T19:32:05.294Z,96.20
2023-02-03T19:34:09.074Z,96.32
2023-02-03T19:36:13.001Z,96.37
2023-02-03T19:38:16.865Z,96.44
2023-02-03T19:40:22.339Z,96.19
2023-02-03T19:42:27.294Z,95.94
2023-02-03T19:44:33.633Z,96.58
2023-02-03T19:46:38.789Z,96.52
2023-02-03T19:48:42.546Z,96.56
2023-02-03T19:50:47.983Z,96.26
2023-02-03T19:52:51.768Z,97.02
2023-02-03T19:54:56.358Z,97.00
2023-02-03T19:57:02.180Z,97.07
2023-02-03T19:59:05.980Z,96.84
2023-02-03T20:01:10.388Z,96.74
2023-02-03T20:03:14.063Z,96.87
2023-02-03T20:05:18.103Z,96.95
2023-02-03T20:07:23.448Z,97.15
2023-02-03T20:09:27.357Z,96.66
2023-02-03T20:11:30.831Z,96.75
2023-02-03T20:13:36.095Z,96.78
2023-02-03T20:15:40.463Z,97.08
2023-02-03T20:17:44.410Z,96.85
2023-02-03T20:19:47.908Z,97.22
2023-02-03T20:21:51.854Z,97.29
2023-02-03T20:23:56.087Z,97.06
2023-02-03T20:26:00.316Z,97.30
2023-02-03T20:28:04.576Z,97.58
2023-02-03T20:30:11.373Z,97.52
2023-02-03T20:32:15.869Z,97.59
2023-02-03T20:34:20.516Z,97.49
2023-02-03T20:36:24.872Z,97.93
2023-02-03T20:38:29.250Z,98.09
2023-02-03T20:40:33.202Z,97.71
2023-02-03T20:42:37.867Z,97.94
2023-02-03T20:44:42.390Z,97.98
2023-02-03T20:46:48.047Z,97.66
2023-02-03T20:48:51.432Z,98.14
2023-02-03T20:50:55.099Z,97.69
2023-02-03T20:52:59.056Z,98.19
2023-02-03T20:55:02.826Z,97.93
2023-02-03T20:57:13.226Z,97.92
2023-02-03T20:59:19.701Z,98.38
2023-02-03T21:01:24.900Z,98.11
2023-02-03T21:03:47.640Z,98.07
2023-02-03T21:05:55.690Z,98.26
2023-02-03T21:07:59.989Z,98.37
2023-02-03T21:10:20.836Z,98.67
2023-02-03T21:12:25.036Z,98.64
2023-02-03T21:14:31.381Z,98.66
2023-02-03T21:16:39.432Z,98.61
2023-02-03T21:18:50.748Z,98.66
2023-02-03T21:20:54.669Z,98.54
2023-02-03T21:22:59.499Z,98.76
2023-02-03T21:25:04.119Z,98.66
2023-02-03T21:27:24.728Z,98.72
2023-02-03T21:29:33.126Z,99.00
2023-02-03T21:31:40.881Z,99.06
2023-02-03T21:33:46.582Z,98.88
2023-02-03T21:35:51.802Z,98.99
2023-02-03T21:37:57.372Z,99.30
2023-02-03T21:40:01.373Z,99.84
2023-02-03T21:42:41.353Z,99.27
2023-02-03T21:44:46.239Z,99.47
2023-02-03T21:46:49.936Z,99.59
2023-02-03T21:48:56.376Z,99.64
2023-02-03T21:51:04.483Z,99.93
2023-02-03T21:53:26.628Z,99.87
2023-02-03T21:55:30.652Z,99.69
2023-02-03T21:57:36.071Z,100.00
2023-02-03T21:59:48.156Z,99.92
2023-02-03T22:01:53.509Z,100.00
2023-02-03T22:04:04.233Z,100.00
2023-02-03T22:06:29.301Z,100.00
2023-02-03T22:08:39.014Z,100.00
2023-02-03T22:10:43.839Z,100.00
2023-02-03T22:12:48.105Z,100.00
2023-02-03T22:14:52.657Z,100.00
2023-02-03T22:16:56.574Z,100.00
2023-02-03T22:19:02.635Z,100.00
2023-02-03T22:21:07.232Z,100.00
2023-02-03T22:23:13.564Z,100.00
2023-02-03T22:25:18.488Z,100.00
2023-02-03T22:27:25.580Z,100.00
2023-02-03T22:29:29.933Z,100.00
2023-02-03T22:31:35.473Z,100.00
2023-02-03T22:33:40.771Z,100.00
2023-02-03T22:35:47.146Z,100.00
2023-02-03T22:37:52.942Z,100.00
2023-02-03T22:39:58.994Z,100.00
2023-02-03T22:42:03.194Z,100.00
2023-02-03T22:44:07.455Z,100.00
2023-02-03T22:46:13.401Z,100.00
2023-02-03T22:48:18.389Z,100.00
2023-02-03T22:50:34.726Z,100.00
2023-02-03T22:52:41.908Z,100.00
2023-02-03T22:54:46.290Z,100.00
2023-02-03T22:56:50.229Z,100.00
2023-02-03T22:58:54.093Z,99.72
2023-02-03T23:00:58.159Z,100.00
2023-02-03T23:03:03.364Z,99.57
2023-02-03T23:05:08.661Z,99.33
2023-02-03T23:07:13.319Z,99.33
2023-02-03T23:09:18.996Z,99.13
2023-02-03T23:11:23.351Z,99.74
2023-02-03T23:13:28.751Z,98.94
2023-02-03T23:15:33.675Z,99.11
2023-02-03T23:17:37.711Z,98.92
2023-02-03T23:19:42.244Z,99.09
2023-02-03T23:21:46.664Z,99.10
2023-02-03T23:23:50.795Z,98.75
2023-02-03T23:25:56.905Z,98.72
2023-02-03T23:28:01.384Z,98.54
2023-02-03T23:30:08.932Z,98.33
2023-02-03T23:32:14.816Z,98.15
2023-02-03T23:34:36.427Z,97.58
2023-02-03T23:36:40.810Z,97.78
2023-02-03T23:38:45.168Z,97.77
2023-02-03T23:40:50.179Z,97.63
2023-02-03T23:42:55.179Z,97.66
2023-02-03T23:44:59.658Z,97.51
2023-02-03T23:47:03.634Z,97.20
2023-02-03T23:49:07.987Z,97.20
2023-02-03T23:51:12.466Z,97.22
2023-02-03T23:53:16.895Z,97.24
2023-02-03T23:55:23.826Z,97.59
2023-02-03T23:57:28.174Z,97.02
2023-02-03T23:59:34.814Z,96.58
